createdAt,value
2017-07-29T00:01:19.659Z,73.20
2017-07-29T00:03:47.087Z,73.10
2017-07-29T00:06:14.563Z,73.00
2017-07-29T00:08:42.068Z,73.20
2017-07-29T00:11:10.295Z,73.30
2017-07-29T00:13:37.822Z,73.30
2017-07-29T00:16:05.272Z,73.30
2017-07-29T00:18:32.717Z,73.10
2017-07-29T00:21:00.171Z,73.10
2017-07-29T00:23:27.624Z,73.50
2017-07-29T00:25:55.087Z,74.00
2017-07-29T00:28:22.564Z,74.20
2017-07-29T00:30:50.005Z,74.30
2017-07-29T00:33:17.472Z,74.80
2017-07-29T00:35:44.912Z,75.10
2017-07-29T00:38:12.376Z,75.30
2017-07-29T00:40:39.907Z,75.50
2017-07-29T00:43:08.122Z,75.90
2017-07-29T00:45:35.596Z,75.80
2017-07-29T00:48:03.056Z,75.70
2017-07-29T00:50:30.511Z,75.90
2017-07-29T00:52:57.955Z,75.90
2017-07-29T00:55:25.408Z,76.30
2017-07-29T00:57:52.847Z,76.40
2017-07-29T01:00:20.307Z,76.30
2017-07-29T01:02:47.780Z,76.40
2017-07-29T01:05:15.244Z,76.40
2017-07-29T01:07:42.679Z,76.50
2017-07-29T01:10:10.146Z,76.60
2017-07-29T01:12:37.603Z,76.90
2017-07-29T01:15:05.059Z,77.30
2017-07-29T01:17:32.516Z,77.40
2017-07-29T01:19:59.980Z,77.50
2017-07-29T01:22:27.436Z,77.70
2017-07-29T01:24:55.630Z,78.50
2017-07-29T01:27:23.125Z,77.70
2017-07-29T01:29:51.347Z,78.40
2017-07-29T01:32:18.803Z,77.90
2017-07-29T01:34:46.256Z,77.70
2017-07-29T01:37:13.707Z,78.10
2017-07-29T01:39:41.169Z,78.40
2017-07-29T01:42:08.605Z,78.60
2017-07-29T01:44:36.065Z,78.40
2017-07-29T01:47:03.505Z,78.60
2017-07-29T01:49:30.962Z,78.70
2017-07-29T01:51:58.401Z,78.80
2017-07-29T01:54:26.608Z,78.90
2017-07-29T01:56:54.058Z,78.90
2017-07-29T01:59:21.579Z,79.20
2017-07-29T02:01:49.791Z,79.10
2017-07-29T02:04:17.255Z,79.10
2017-07-29T02:06:44.725Z,79.40
2017-07-29T02:09:12.201Z,79.50
2017-07-29T02:11:39.656Z,79.60
2017-07-29T02:14:07.131Z,79.80
2017-07-29T02:16:35.356Z,79.70
2017-07-29T02:19:02.810Z,79.90
2017-07-29T02:21:30.266Z,80.00
2017-07-29T02:23:57.724Z,80.00
2017-07-29T02:26:25.169Z,80.30
2017-07-29T02:28:52.595Z,80.30
2017-07-29T02:31:20.947Z,80.20
2017-07-29T02:33:48.398Z,80.10
2017-07-29T02:36:15.856Z,80.10
2017-07-29T02:38:43.293Z,80.10
2017-07-29T02:41:10.761Z,79.90
2017-07-29T02:43:38.211Z,80.10
2017-07-29T02:46:05.651Z,80.10
2017-07-29T02:48:33.112Z,80.50
2017-07-29T02:51:00.579Z,80.80
2017-07-29T02:53:28.045Z,80.80
2017-07-29T02:55:55.504Z,80.90
2017-07-29T02:58:22.964Z,80.80
2017-07-29T03:00:50.403Z,81.00
2017-07-29T03:03:17.861Z,81.20
2017-07-29T03:05:45.320Z,81.20
2017-07-29T03:08:12.774Z,81.70
2017-07-29T03:10:40.330Z,81.50
2017-07-29T03:13:07.977Z,81.40
2017-07-29T03:15:35.513Z,81.50
2017-07-29T03:18:03.059Z,82.30
2017-07-29T03:20:30.495Z,81.40
2017-07-29T03:22:57.936Z,81.40
2017-07-29T03:25:25.405Z,81.30
2017-07-29T03:27:52.841Z,81.40
2017-07-29T03:30:20.296Z,81.30
2017-07-29T03:32:47.783Z,80.70
2017-07-29T03:35:15.231Z,81.00
2017-07-29T03:37:43.459Z,80.90
2017-07-29T03:40:10.913Z,80.70
2017-07-29T03:42:38.375Z,81.00
2017-07-29T03:45:05.832Z,80.90
2017-07-29T03:47:33.291Z,81.10
2017-07-29T03:50:00.725Z,81.00
2017-07-29T03:52:28.187Z,81.40
2017-07-29T03:54:55.645Z,81.50
2017-07-29T03:57:23.072Z,81.20
2017-07-29T03:59:50.532Z,81.30
2017-07-29T04:02:17.967Z,81.40
2017-07-29T04:04:46.283Z,81.80
2017-07-29T04:07:13.887Z,81.80
2017-07-29T04:09:41.443Z,82.00
2017-07-29T04:12:08.915Z,82.10
2017-07-29T04:14:38.101Z,82.70
2017-07-29T04:17:05.575Z,82.40
2017-07-29T04:19:33.023Z,82.50
2017-07-29T04:22:01.240Z,82.50
2017-07-29T04:24:28.695Z,82.40
2017-07-29T04:26:56.135Z,82.60
2017-07-29T04:29:23.575Z,82.30
2017-07-29T04:31:51.800Z,82.20
2017-07-29T04:34:19.236Z,82.20
2017-07-29T04:36:46.696Z,82.60
2017-07-29T04:39:14.132Z,82.70
2017-07-29T04:41:41.593Z,82.60
2017-07-29T04:44:09.088Z,82.70
2017-07-29T04:46:36.550Z,82.60
2017-07-29T04:49:03.999Z,82.70
2017-07-29T04:51:31.429Z,82.90
2017-07-29T04:53:58.888Z,82.60
2017-07-29T04:56:26.328Z,82.70
2017-07-29T04:58:53.788Z,82.70
2017-07-29T05:01:21.267Z,83.70
2017-07-29T05:03:48.696Z,82.90
2017-07-29T05:06:16.168Z,82.90
2017-07-29T05:08:43.614Z,83.00
2017-07-29T05:11:11.064Z,83.10
2017-07-29T05:13:38.522Z,82.40
2017-07-29T05:16:05.972Z,82.30
2017-07-29T05:18:33.412Z,82.50
2017-07-29T05:21:00.886Z,82.80
2017-07-29T05:23:28.349Z,82.70
2017-07-29T05:25:55.783Z,82.50
2017-07-29T05:28:23.285Z,82.70
2017-07-29T05:30:50.713Z,82.90
2017-07-29T05:33:18.175Z,83.00
2017-07-29T05:35:45.617Z,83.00
2017-07-29T05:38:13.091Z,83.50
2017-07-29T05:40:40.528Z,83.50
2017-07-29T05:43:07.999Z,83.30
2017-07-29T05:45:35.428Z,83.30
2017-07-29T05:48:02.903Z,83.20
2017-07-29T05:50:30.340Z,83.10
2017-07-29T05:52:58.556Z,83.10
2017-07-29T05:55:26.036Z,82.90
2017-07-29T05:57:53.466Z,82.70
2017-07-29T06:00:21.002Z,82.10
2017-07-29T06:02:48.511Z,81.70
2017-07-29T06:05:15.997Z,82.00
2017-07-29T06:07:44.207Z,83.20
2017-07-29T06:10:11.659Z,82.40
2017-07-29T06:12:39.117Z,82.20
2017-07-29T06:15:06.549Z,82.00
2017-07-29T06:17:34.787Z,82.20
2017-07-29T06:20:02.244Z,82.10
2017-07-29T06:22:29.682Z,81.90
2017-07-29T06:24:57.134Z,81.70
2017-07-29T06:27:24.577Z,81.60
2017-07-29T06:29:52.088Z,80.60
2017-07-29T06:32:19.523Z,80.70
2017-07-29T06:34:46.975Z,81.00
2017-07-29T06:37:14.444Z,80.20
2017-07-29T06:39:41.884Z,79.80
2017-07-29T06:42:09.340Z,79.00
2017-07-29T06:44:36.778Z,78.30
2017-07-29T06:47:04.221Z,78.50
2017-07-29T06:49:31.689Z,77.90
2017-07-29T06:51:59.123Z,76.70
2017-07-29T06:54:26.596Z,77.20
2017-07-29T06:56:54.029Z,76.80
2017-07-29T06:59:21.493Z,76.60
2017-07-29T07:01:48.920Z,77.10
2017-07-29T07:04:16.356Z,77.30
2017-07-29T07:06:43.815Z,77.60
2017-07-29T07:09:11.268Z,77.70
2017-07-29T07:11:38.739Z,78.00
2017-07-29T07:14:06.176Z,76.80
2017-07-29T07:16:33.637Z,76.40
2017-07-29T07:19:01.098Z,75.70
2017-07-29T07:21:28.555Z,75.60
2017-07-29T07:23:55.996Z,74.20
2017-07-29T07:26:23.441Z,72.60
2017-07-29T07:28:50.915Z,71.90
2017-07-29T07:31:18.373Z,70.30
2017-07-29T07:33:45.800Z,66.50
2017-07-29T07:36:13.255Z,60.50
2017-07-29T07:38:40.684Z,56.80
2017-07-29T07:41:08.135Z,55.20
2017-07-29T07:43:35.604Z,53.40
2017-07-29T07:46:03.043Z,51.80
2017-07-29T07:48:31.271Z,49.60
2017-07-29T07:50:58.696Z,49.60
2017-07-29T07:53:26.152Z,48.70
2017-07-29T07:55:53.591Z,45.90
2017-07-29T07:58:21.127Z,44.80
2017-07-29T08:00:49.323Z,44.10
2017-07-29T08:03:16.801Z,44.30
2017-07-29T08:05:44.267Z,43.80
2017-07-29T08:08:11.708Z,45.80
2017-07-29T08:10:39.167Z,45.60
2017-07-29T08:13:06.632Z,46.20
2017-07-29T08:15:34.195Z,47.10
2017-07-29T08:18:01.639Z,47.60
2017-07-29T08:20:29.089Z,45.80
2017-07-29T08:22:56.549Z,46.80
2017-07-29T08:25:23.986Z,48.50
2017-07-29T08:27:52.191Z,48.10
2017-07-29T08:30:19.631Z,48.00
2017-07-29T08:32:47.091Z,47.20
2017-07-29T08:35:14.537Z,47.20
2017-07-29T08:37:41.984Z,47.10
2017-07-29T08:40:09.411Z,46.60
2017-07-29T08:42:36.892Z,45.60
2017-07-29T08:45:05.141Z,43.90
2017-07-29T08:47:32.606Z,43.90
2017-07-29T08:50:00.049Z,45.20
2017-07-29T08:52:27.495Z,46.10
2017-07-29T08:54:55.144Z,46.50
2017-07-29T08:57:22.590Z,46.20
2017-07-29T08:59:50.056Z,46.40
2017-07-29T09:02:17.499Z,46.80
2017-07-29T09:04:44.973Z,45.90
2017-07-29T09:07:12.477Z,45.90
2017-07-29T09:09:40.680Z,46.20
2017-07-29T09:12:08.107Z,46.10
2017-07-29T09:14:35.567Z,45.10
2017-07-29T09:17:03.009Z,43.90
2017-07-29T09:19:31.224Z,45.60
2017-07-29T09:21:58.727Z,45.60
2017-07-29T09:24:26.155Z,44.80
2017-07-29T09:26:53.620Z,45.20
2017-07-29T09:29:21.096Z,46.50
2017-07-29T09:31:48.542Z,48.70
2017-07-29T09:34:16.000Z,47.70
2017-07-29T09:36:43.451Z,46.60
2017-07-29T09:39:10.920Z,47.80
2017-07-29T09:41:38.355Z,49.10
2017-07-29T09:44:05.796Z,49.70
2017-07-29T09:46:33.259Z,49.20
2017-07-29T09:49:00.697Z,48.20
2017-07-29T09:51:28.168Z,48.30
2017-07-29T09:53:55.623Z,48.70
2017-07-29T09:56:23.098Z,49.30
2017-07-29T09:58:50.531Z,49.20
2017-07-29T10:01:18.059Z,46.80
2017-07-29T10:03:45.495Z,45.40
2017-07-29T10:06:13.709Z,44.40
2017-07-29T10:08:41.275Z,44.40
2017-07-29T10:11:08.730Z,45.40
2017-07-29T10:13:36.205Z,46.50
2017-07-29T10:16:03.627Z,45.00
2017-07-29T10:18:31.113Z,44.50
2017-07-29T10:20:58.550Z,43.80
2017-07-29T10:23:26.001Z,44.80
2017-07-29T10:25:53.464Z,44.70
2017-07-29T10:28:20.965Z,45.90
2017-07-29T10:30:49.218Z,50.00
2017-07-29T10:33:16.708Z,49.50
2017-07-29T10:35:45.015Z,48.60
2017-07-29T10:38:12.470Z,46.70
2017-07-29T10:40:39.939Z,43.50
2017-07-29T10:43:07.423Z,42.80
2017-07-29T10:45:34.872Z,41.70
2017-07-29T10:48:02.314Z,42.60
2017-07-29T10:50:29.775Z,43.00
2017-07-29T10:52:57.213Z,45.10
2017-07-29T10:55:24.659Z,46.10
2017-07-29T10:57:52.139Z,45.40
2017-07-29T11:00:19.695Z,45.40
2017-07-29T11:02:47.207Z,45.80
2017-07-29T11:05:15.407Z,44.10
2017-07-29T11:07:42.881Z,44.10
2017-07-29T11:10:10.291Z,43.70
2017-07-29T11:12:37.821Z,43.20
2017-07-29T11:15:05.271Z,42.90
2017-07-29T11:17:32.780Z,43.50
2017-07-29T11:20:00.236Z,42.90
2017-07-29T11:22:27.659Z,42.40
2017-07-29T11:24:55.922Z,42.00
2017-07-29T11:27:23.357Z,42.00
2017-07-29T11:29:50.851Z,42.40
2017-07-29T11:32:18.312Z,42.80
2017-07-29T11:34:45.885Z,43.30
2017-07-29T11:37:13.360Z,44.40
2017-07-29T11:39:40.840Z,43.90
2017-07-29T11:42:08.308Z,43.40
2017-07-29T11:44:35.755Z,42.80
2017-07-29T11:47:03.195Z,42.60
2017-07-29T11:49:30.652Z,41.40
2017-07-29T11:51:58.096Z,42.20
2017-07-29T11:54:25.579Z,42.70
2017-07-29T11:56:53.059Z,42.20
2017-07-29T11:59:20.516Z,41.60
2017-07-29T12:01:48.748Z,43.30
2017-07-29T12:04:16.201Z,43.20
2017-07-29T12:06:43.644Z,42.90
2017-07-29T12:09:11.116Z,42.00
2017-07-29T12:11:38.567Z,41.30
2017-07-29T12:14:06.001Z,42.00
2017-07-29T12:16:33.463Z,42.40
2017-07-29T12:19:00.900Z,43.50
2017-07-29T12:21:28.352Z,44.30
2017-07-29T12:23:55.812Z,44.50
2017-07-29T12:26:23.242Z,46.40
2017-07-29T12:28:50.708Z,47.10
2017-07-29T12:31:18.144Z,46.90
2017-07-29T12:33:45.599Z,46.60
2017-07-29T12:36:13.044Z,46.80
2017-07-29T12:38:40.516Z,46.30
2017-07-29T12:41:07.941Z,46.10
2017-07-29T12:43:35.391Z,45.30
2017-07-29T12:46:03.606Z,44.10
2017-07-29T12:48:31.064Z,44.10
2017-07-29T12:50:58.495Z,42.90
2017-07-29T12:53:25.932Z,42.90
2017-07-29T12:55:53.396Z,42.60
2017-07-29T12:58:20.856Z,43.10
2017-07-29T13:00:48.316Z,43.90
2017-07-29T13:03:15.757Z,45.00
2017-07-29T13:05:43.224Z,45.50
2017-07-29T13:08:10.692Z,44.80
2017-07-29T13:10:38.130Z,45.40
2017-07-29T13:13:05.591Z,46.20
2017-07-29T13:15:33.111Z,46.90
2017-07-29T13:18:01.348Z,46.40
2017-07-29T13:20:28.795Z,46.40
2017-07-29T13:22:56.228Z,45.40
2017-07-29T13:25:23.682Z,44.80
2017-07-29T13:27:51.115Z,44.90
2017-07-29T13:30:18.616Z,45.80
2017-07-29T13:32:46.167Z,47.30
2017-07-29T13:35:13.618Z,47.10
2017-07-29T13:37:41.108Z,45.60
2017-07-29T13:40:09.325Z,47.00
2017-07-29T13:42:36.782Z,46.60
2017-07-29T13:45:04.275Z,45.20
2017-07-29T13:47:31.704Z,45.10
2017-07-29T13:49:59.224Z,44.80
2017-07-29T13:52:26.671Z,44.40
2017-07-29T13:54:54.141Z,43.50
2017-07-29T13:57:21.577Z,44.70
2017-07-29T13:59:49.015Z,45.10
2017-07-29T14:02:17.240Z,45.90
2017-07-29T14:04:44.688Z,45.30
2017-07-29T14:07:12.259Z,44.40
2017-07-29T14:09:39.835Z,43.60
2017-07-29T14:12:07.435Z,43.30
2017-07-29T14:14:34.888Z,44.30
2017-07-29T14:17:02.323Z,44.00
2017-07-29T14:19:30.447Z,44.00
2017-07-29T14:21:57.883Z,44.70
2017-07-29T14:24:25.336Z,45.20
2017-07-29T14:26:52.773Z,45.40
2017-07-29T14:29:20.232Z,45.10
2017-07-29T14:31:47.692Z,44.90
2017-07-29T14:34:15.124Z,45.20
2017-07-29T14:36:42.570Z,45.00
2017-07-29T14:39:10.797Z,45.40
2017-07-29T14:41:38.241Z,45.30
2017-07-29T14:44:05.706Z,45.60
2017-07-29T14:46:33.192Z,45.50
2017-07-29T14:49:00.721Z,45.00
2017-07-29T14:51:28.190Z,46.50
2017-07-29T14:53:55.642Z,47.50
2017-07-29T14:56:23.080Z,48.60
2017-07-29T14:58:50.541Z,49.10
2017-07-29T15:01:17.977Z,48.60
2017-07-29T15:03:45.444Z,48.40
2017-07-29T15:06:12.918Z,49.00
2017-07-29T15:08:40.855Z,49.60
2017-07-29T15:11:08.384Z,48.00
2017-07-29T15:13:35.866Z,46.70
2017-07-29T15:16:03.307Z,46.20
2017-07-29T15:18:30.777Z,45.50
2017-07-29T15:20:58.234Z,45.40
2017-07-29T15:23:25.695Z,45.00
2017-07-29T15:25:53.151Z,45.70
2017-07-29T15:28:20.609Z,46.70
2017-07-29T15:30:48.089Z,47.50
2017-07-29T15:33:16.284Z,47.60
2017-07-29T15:35:43.778Z,47.50
2017-07-29T15:38:11.218Z,48.20
2017-07-29T15:40:38.669Z,49.00
2017-07-29T15:43:06.139Z,49.90
2017-07-29T15:45:33.816Z,50.40
2017-07-29T15:48:01.269Z,50.40
2017-07-29T15:50:28.711Z,49.60
2017-07-29T15:52:57.010Z,50.00
2017-07-29T15:55:24.566Z,50.00
2017-07-29T15:57:52.020Z,50.00
2017-07-29T16:00:20.265Z,50.70
2017-07-29T16:02:47.703Z,50.20
2017-07-29T16:05:15.152Z,50.50
2017-07-29T16:07:43.196Z,50.60
2017-07-29T16:10:11.498Z,51.00
2017-07-29T16:12:38.970Z,51.00
2017-07-29T16:15:06.444Z,51.50
2017-07-29T16:17:33.908Z,51.30
2017-07-29T16:20:01.361Z,51.30
2017-07-29T16:22:28.820Z,51.10
2017-07-29T16:24:56.301Z,51.10
2017-07-29T16:27:23.728Z,51.50
2017-07-29T16:29:52.037Z,52.10
2017-07-29T16:32:19.477Z,51.60
2017-07-29T16:34:46.962Z,51.80
2017-07-29T16:37:14.404Z,51.80
2017-07-29T16:39:41.966Z,52.00
2017-07-29T16:42:09.408Z,51.80
2017-07-29T16:44:36.957Z,52.20
2017-07-29T16:47:05.169Z,52.70
2017-07-29T16:49:32.618Z,52.70
2017-07-29T16:52:00.164Z,52.70
2017-07-29T16:54:27.624Z,53.20
2017-07-29T16:56:55.240Z,53.50
2017-07-29T16:59:22.687Z,53.80
2017-07-29T17:01:50.936Z,54.10
2017-07-29T17:04:18.400Z,54.10
2017-07-29T17:06:45.823Z,54.30
2017-07-29T17:09:13.335Z,54.20
2017-07-29T17:11:40.776Z,54.00
2017-07-29T17:14:09.003Z,54.50
2017-07-29T17:16:37.412Z,54.50
2017-07-29T17:19:05.655Z,55.20
2017-07-29T17:21:33.108Z,54.70
2017-07-29T17:24:00.534Z,54.80
2017-07-29T17:26:27.995Z,55.10
2017-07-29T17:28:55.445Z,55.40
2017-07-29T17:31:22.893Z,55.60
2017-07-29T17:33:50.353Z,55.60
2017-07-29T17:36:17.856Z,55.60
2017-07-29T17:38:45.300Z,55.50
2017-07-29T17:41:12.745Z,55.80
2017-07-29T17:43:40.210Z,55.80
2017-07-29T17:46:07.775Z,56.00
2017-07-29T17:48:35.213Z,56.30
2017-07-29T17:51:02.687Z,56.60
2017-07-29T17:53:30.909Z,56.90
2017-07-29T17:55:58.402Z,56.90
2017-07-29T17:58:25.840Z,57.10
2017-07-29T18:00:53.306Z,57.90
2017-07-29T18:03:20.782Z,57.20
2017-07-29T18:05:49.026Z,57.40
2017-07-29T18:08:16.492Z,57.40
2017-07-29T18:10:43.983Z,57.40
2017-07-29T18:13:12.210Z,57.40
2017-07-29T18:15:39.672Z,57.40
2017-07-29T18:18:07.201Z,57.50
2017-07-29T18:20:34.637Z,57.70
2017-07-29T18:23:02.095Z,57.60
2017-07-29T18:25:29.535Z,57.80
2017-07-29T18:27:57.018Z,57.80
2017-07-29T18:30:24.469Z,57.80
2017-07-29T18:32:51.910Z,57.80
2017-07-29T18:35:19.396Z,57.50
2017-07-29T18:37:46.860Z,58.30
2017-07-29T18:40:14.424Z,57.70
2017-07-29T18:42:41.947Z,57.80
2017-07-29T18:45:09.425Z,58.10
2017-07-29T18:47:36.864Z,58.10
2017-07-29T18:50:04.375Z,58.00
2017-07-29T18:52:31.803Z,58.00
2017-07-29T18:55:00.014Z,58.00
2017-07-29T18:57:27.498Z,58.00
2017-07-29T18:59:54.956Z,58.20
2017-07-29T19:02:22.410Z,58.30
2017-07-29T19:04:49.860Z,58.40
2017-07-29T19:07:17.332Z,58.60
2017-07-29T19:09:44.788Z,58.60
2017-07-29T19:12:12.233Z,58.70
2017-07-29T19:14:39.688Z,58.90
2017-07-29T19:17:07.123Z,59.20
2017-07-29T19:19:34.604Z,59.60
2017-07-29T19:22:06.016Z,60.00
2017-07-29T19:24:33.465Z,60.20
2017-07-29T19:27:00.931Z,60.90
2017-07-29T19:29:28.385Z,61.10
2017-07-29T19:31:55.881Z,61.60
2017-07-29T19:34:24.079Z,63.20
2017-07-29T19:36:51.541Z,63.20
2017-07-29T19:39:18.971Z,63.30
2017-07-29T19:41:47.232Z,64.00
2017-07-29T19:44:15.486Z,64.20
2017-07-29T19:46:42.928Z,64.20
2017-07-29T19:49:10.414Z,64.30
2017-07-29T19:51:37.876Z,64.50
2017-07-29T19:54:06.079Z,65.80
2017-07-29T19:56:33.543Z,65.80
2017-07-29T19:59:01.000Z,65.90
2017-07-29T20:01:28.450Z,65.70
2017-07-29T20:03:55.902Z,65.70
2017-07-29T20:06:23.390Z,66.10
2017-07-29T20:08:50.835Z,65.80
2017-07-29T20:11:18.273Z,66.30
2017-07-29T20:13:45.763Z,66.80
2017-07-29T20:16:13.214Z,67.20
2017-07-29T20:18:40.675Z,67.40
2017-07-29T20:21:08.107Z,68.10
2017-07-29T20:23:35.563Z,68.50
2017-07-29T20:26:03.005Z,68.80
2017-07-29T20:28:30.484Z,68.90
2017-07-29T20:30:57.946Z,69.10
2017-07-29T20:33:25.382Z,68.80
2017-07-29T20:35:52.893Z,68.40
2017-07-29T20:38:20.366Z,69.20
2017-07-29T20:40:47.820Z,67.50
2017-07-29T20:43:15.271Z,67.30
2017-07-29T20:45:42.757Z,66.90
2017-07-29T20:48:10.319Z,67.20
2017-07-29T20:50:37.822Z,67.90
2017-07-29T20:53:05.276Z,68.30
2017-07-29T20:55:32.715Z,68.40
2017-07-29T20:58:00.963Z,68.80
2017-07-29T21:00:28.516Z,68.80
2017-07-29T21:02:56.113Z,68.90
2017-07-29T21:05:24.176Z,68.10
2017-07-29T21:07:51.608Z,68.90
2017-07-29T21:10:19.065Z,68.70
2017-07-29T21:12:47.299Z,69.40
2017-07-29T21:15:14.776Z,69.40
2017-07-29T21:17:42.267Z,69.40
2017-07-29T21:20:09.725Z,69.10
2017-07-29T21:22:37.202Z,69.50
2017-07-29T21:25:04.649Z,69.70
2017-07-29T21:27:32.145Z,69.10
2017-07-29T21:29:59.613Z,69.40
2017-07-29T21:32:27.185Z,69.50
2017-07-29T21:34:56.136Z,69.00
2017-07-29T21:37:23.604Z,69.00
2017-07-29T21:39:51.035Z,69.60
2017-07-29T21:42:18.483Z,69.20
2017-07-29T21:44:45.953Z,68.80
2017-07-29T21:47:13.615Z,70.00
2017-07-29T21:49:41.175Z,68.90
2017-07-29T21:52:08.648Z,69.20
2017-07-29T21:54:37.327Z,69.80
2017-07-29T21:57:04.758Z,70.50
2017-07-29T21:59:32.213Z,69.90
2017-07-29T22:01:59.664Z,69.80
2017-07-29T22:04:27.114Z,69.40
2017-07-29T22:06:54.561Z,69.20
2017-07-29T22:09:22.015Z,70.40
2017-07-29T22:11:49.477Z,70.40
2017-07-29T22:14:16.919Z,70.90
2017-07-29T22:16:44.411Z,70.90
2017-07-29T22:19:11.840Z,70.50
2017-07-29T22:21:39.299Z,71.30
2017-07-29T22:24:06.749Z,72.20
2017-07-29T22:26:34.200Z,72.80
2017-07-29T22:29:01.688Z,72.90
2017-07-29T22:31:29.136Z,73.20
2017-07-29T22:33:56.588Z,73.50
2017-07-29T22:36:24.048Z,73.70
2017-07-29T22:38:51.503Z,74.20
2017-07-29T22:41:18.939Z,74.60
2017-07-29T22:43:46.408Z,74.90
2017-07-29T22:46:13.865Z,75.30
2017-07-29T22:48:41.295Z,75.50
2017-07-29T22:51:08.815Z,76.00
2017-07-29T22:53:36.252Z,76.50
2017-07-29T22:56:04.477Z,77.50
2017-07-29T22:58:31.935Z,77.40
2017-07-29T23:00:59.368Z,77.50
2017-07-29T23:03:27.194Z,77.50
2017-07-29T23:05:55.403Z,77.50
2017-07-29T23:08:22.868Z,77.50
2017-07-29T23:10:50.315Z,77.80
2017-07-29T23:13:17.812Z,77.80
2017-07-29T23:15:45.271Z,78.30
2017-07-29T23:18:12.711Z,78.40
2017-07-29T23:20:40.167Z,78.70
2017-07-29T23:23:07.603Z,79.30
2017-07-29T23:25:35.056Z,79.00
2017-07-29T23:28:02.513Z,79.30
2017-07-29T23:30:29.961Z,79.30
2017-07-29T23:32:57.417Z,79.60
2017-07-29T23:35:26.007Z,79.60
2017-07-29T23:37:53.469Z,79.60
2017-07-29T23:40:20.908Z,79.70
2017-07-29T23:42:48.358Z,80.40
2017-07-29T23:45:15.806Z,81.00
2017-07-29T23:47:43.241Z,81.80
2017-07-29T23:50:10.699Z,82.10
2017-07-29T23:52:38.162Z,82.40
2017-07-29T23:55:05.633Z,82.50
2017-07-29T23:57:33.143Z,82.60
